Tuesday, May 31, 2016
07:49 UTC
  |  Log In   |  Register Free
Airport Search:

Meyers-Diver'S Airport
(3TE)

Meyers-Diver'S Airport Diagram
No Airport Diagram Available

FAA data valid effective Mar 31 2016 - May 26 2016 (unless otherwise noted).

 
 
 
 
 
 
 
 
 
 
 
 
 
 
Current Aviation Weather for 3TE

Weather Summary


Current weather conditions are not available for 3TE - The nearest NOAA weather station is at ADG, (11.3 nm SW from 3TE)

The most recent METAR observation for 3TE was updated at: 12:53 UTC
METAR for 3TE is not available. Closest METAR is for KARB 14.7 nm SW
KARB  (14.7 nm SW)   (most recent observation was updated at 31:06 UTC)
310653Z 00000KT 10SM CLR 16/11 A2999 RMK AO2 SLP149 T01610106

KDUH  (21.5 nm NW)   (most recent observation was updated at 31:07 UTC)
310734Z AUTO 00000KT 10SM CLR 15/13 A2999 RMK AO2 T01470125

TAF for 3TE is not available.
KYIP  (22.2 nm SW)   (most recent observation was updatred at 31:05 UTC)
310520Z 3106/0106 32005KT P6SM FEW250 FM310900 03005KT P6SM SCT250 FM311400 07005KT P6SM BKN250 FM311900 12007KT P6SM FEW050 BKN200 FM010000 08006KT P6SM BKN200


KTOL  (27.0 nm NW)   (most recent observation was updatred at 31:05 UTC)
310534Z 3106/0106 VRB03KT P6SM SCT250 FM311500 07007KT P6SM BKN250


KJXN  (27.1 nm SE)   (most recent observation was updatred at 31:05 UTC)
310540Z 3106/0106 VRB03KT P6SM FEW250
GlobalAir.com is loading additional information.
 Current Weather at ADG
61.0 F° (16.1 C°)

North winds at 0.0 mph
Pressure:
30.00 in
Humidity:
78%
Wind:
North at 0.0 mph
Dew Point:
54.0 F° (12.2 C°)
Visibility:
10.00 mi
3TE NOAA Radar




Find All Airport Services Find A Hotel Find A Rental Car Find A Golf Course Find A Restaurant $100 Hamburger



Airport Weather Forecast for 3TE

Translated METAR for KADG (0653 UTC)
METAR:
KADG 310653Z AUTO 00000KT 10SM CLR 15/12 A3000 RMK AO2 SLP155 T01500122
Conditions at:
KADG (Lenawee County, MI) observed 0653 UTC 31 May 2016
Temperature:
15°C (59°F)
Dewpoint:
12°C (53.6°F) [RH = 82.3]
Pressure:
30 inches Hg (1015.9 mb)
pressure at sea level is 155 in Hg
Winds:
from the N (000 degrees) at 0 mph (0 knots: 0 m/s)
Visibility:
10 mile(s)
Ceiling:
at least 12,000 feet AGL
Clouds:
Clear below 12,000 feet AGL
Remarks:
site is un-manned
site is automated and HAS a precipitation sensor

FBO's on the Field
FBO Company Facility Photos Services Transportation Aviation Fuel Prices: Prices include tax
Catering Weather Repair Courtesy Rental Type 100LL JetA JetA+ MOGAS 8087
 
Village of Boyceville

This FBO has not yet been rated
FS:Shell
Last Updated: May-23
Login to update fuel prices
SS:
Contact Village of BoycevilleMore FBO Information
 
Add another FBO Facility Photos Catering Weather Repair Courtesy Rental Type 100LL JetA JetA+ MOGAS 8087
Services Transportation Aviation Fuel Prices: Prices include tax


model-print
model-print
model-print
model-print